sensor_id;sensor_type;location;lat;lon;timestamp;P1;durP1;ratioP1;P2;durP2;ratioP2
17864;SDS011;9058;52.018;4.202;2023-02-15T00:00:13;194.23;;;85.80;;
17864;SDS011;9058;52.018;4.202;2023-02-15T00:02:41;188.03;;;86.00;;
17864;SDS011;9058;52.018;4.202;2023-02-15T00:05:09;192.73;;;87.70;;
17864;SDS011;9058;52.018;4.202;2023-02-15T00:07:36;198.50;;;91.20;;
17864;SDS011;9058;52.018;4.202;2023-02-15T00:10:04;191.47;;;87.83;;
17864;SDS011;9058;52.018;4.202;2023-02-15T00:12:32;197.73;;;91.83;;
17864;SDS011;9058;52.018;4.202;2023-02-15T00:14:58;191.43;;;88.90;;
17864;SDS011;9058;52.018;4.202;2023-02-15T00:17:26;195.50;;;89.63;;
17864;SDS011;9058;52.018;4.202;2023-02-15T00:19:54;196.63;;;87.80;;
17864;SDS011;9058;52.018;4.202;2023-02-15T00:22:23;184.23;;;87.33;;
17864;SDS011;9058;52.018;4.202;2023-02-15T00:24:49;199.33;;;90.87;;
17864;SDS011;9058;52.018;4.202;2023-02-15T00:27:16;187.03;;;91.70;;
17864;SDS011;9058;52.018;4.202;2023-02-15T00:29:43;196.87;;;93.00;;
17864;SDS011;9058;52.018;4.202;2023-02-15T00:32:11;192.30;;;94.00;;
17864;SDS011;9058;52.018;4.202;2023-02-15T00:34:37;187.53;;;93.03;;
17864;SDS011;9058;52.018;4.202;2023-02-15T00:37:04;178.43;;;91.53;;
17864;SDS011;9058;52.018;4.202;2023-02-15T00:39:32;198.10;;;95.97;;
17864;SDS011;9058;52.018;4.202;2023-02-15T00:41:58;188.03;;;90.97;;
17864;SDS011;9058;52.018;4.202;2023-02-15T00:44:24;198.20;;;88.27;;
17864;SDS011;9058;52.018;4.202;2023-02-15T00:46:52;179.97;;;89.00;;
17864;SDS011;9058;52.018;4.202;2023-02-15T00:49:19;197.97;;;91.43;;
17864;SDS011;9058;52.018;4.202;2023-02-15T00:51:45;189.70;;;89.40;;
17864;SDS011;9058;52.018;4.202;2023-02-15T00:54:13;201.63;;;92.27;;
17864;SDS011;9058;52.018;4.202;2023-02-15T00:56:41;200.07;;;91.70;;
17864;SDS011;9058;52.018;4.202;2023-02-15T00:59:08;196.80;;;92.27;;
17864;SDS011;9058;52.018;4.202;2023-02-15T01:01:34;189.67;;;92.50;;
17864;SDS011;9058;52.018;4.202;2023-02-15T01:04:01;182.50;;;89.80;;
17864;SDS011;9058;52.018;4.202;2023-02-15T01:06:27;196.30;;;91.90;;
17864;SDS011;9058;52.018;4.202;2023-02-15T01:08:54;173.27;;;90.70;;
17864;SDS011;9058;52.018;4.202;2023-02-15T01:11:21;189.53;;;88.40;;
17864;SDS011;9058;52.018;4.202;2023-02-15T01:13:51;190.23;;;89.97;;
17864;SDS011;9058;52.018;4.202;2023-02-15T01:16:18;185.33;;;91.37;;
17864;SDS011;9058;52.018;4.202;2023-02-15T01:18:45;187.40;;;88.03;;
17864;SDS011;9058;52.018;4.202;2023-02-15T01:21:12;197.40;;;89.70;;
17864;SDS011;9058;52.018;4.202;2023-02-15T01:23:40;191.73;;;91.00;;
17864;SDS011;9058;52.018;4.202;2023-02-15T01:26:07;196.73;;;90.60;;
17864;SDS011;9058;52.018;4.202;2023-02-15T01:28:34;182.77;;;87.33;;
17864;SDS011;9058;52.018;4.202;2023-02-15T01:31:06;197.87;;;92.13;;
17864;SDS011;9058;52.018;4.202;2023-02-15T01:33:33;182.20;;;87.10;;
17864;SDS011;9058;52.018;4.202;2023-02-15T01:35:59;187.83;;;85.97;;
17864;SDS011;9058;52.018;4.202;2023-02-15T01:38:26;192.47;;;88.03;;
17864;SDS011;9058;52.018;4.202;2023-02-15T01:40:54;183.00;;;88.40;;
17864;SDS011;9058;52.018;4.202;2023-02-15T01:43:45;193.30;;;86.47;;
17864;SDS011;9058;52.018;4.202;2023-02-15T01:46:14;176.17;;;85.03;;
17864;SDS011;9058;52.018;4.202;2023-02-15T01:48:43;201.90;;;90.57;;
17864;SDS011;9058;52.018;4.202;2023-02-15T01:51:10;195.83;;;90.40;;
17864;SDS011;9058;52.018;4.202;2023-02-15T01:53:38;186.53;;;89.17;;
17864;SDS011;9058;52.018;4.202;2023-02-15T01:56:08;189.13;;;86.53;;
17864;SDS011;9058;52.018;4.202;2023-02-15T01:58:35;195.40;;;86.47;;
17864;SDS011;9058;52.018;4.202;2023-02-15T02:01:02;196.33;;;89.60;;
17864;SDS011;9058;52.018;4.202;2023-02-15T02:03:35;211.33;;;89.93;;
17864;SDS011;9058;52.018;4.202;2023-02-15T02:06:03;200.33;;;89.53;;
17864;SDS011;9058;52.018;4.202;2023-02-15T02:08:29;189.30;;;85.07;;
17864;SDS011;9058;52.018;4.202;2023-02-15T02:10:56;199.30;;;87.30;;
17864;SDS011;9058;52.018;4.202;2023-02-15T02:13:23;197.33;;;89.17;;
17864;SDS011;9058;52.018;4.202;2023-02-15T02:15:51;191.37;;;87.00;;
17864;SDS011;9058;52.018;4.202;2023-02-15T02:18:22;208.70;;;87.77;;
17864;SDS011;9058;52.018;4.202;2023-02-15T02:21:11;192.70;;;84.77;;
17864;SDS011;9058;52.018;4.202;2023-02-15T02:23:51;199.60;;;89.30;;
17864;SDS011;9058;52.018;4.202;2023-02-15T02:26:31;217.00;;;90.27;;
17864;SDS011;9058;52.018;4.202;2023-02-15T02:29:11;209.67;;;91.50;;
17864;SDS011;9058;52.018;4.202;2023-02-15T02:31:48;199.40;;;96.43;;
17864;SDS011;9058;52.018;4.202;2023-02-15T02:34:23;211.50;;;94.27;;
17864;SDS011;9058;52.018;4.202;2023-02-15T02:36:52;209.73;;;94.80;;
17864;SDS011;9058;52.018;4.202;2023-02-15T02:39:23;214.93;;;92.53;;
17864;SDS011;9058;52.018;4.202;2023-02-15T02:41:51;201.17;;;92.10;;
17864;SDS011;9058;52.018;4.202;2023-02-15T02:44:23;203.50;;;95.33;;
17864;SDS011;9058;52.018;4.202;2023-02-15T02:46:51;212.40;;;92.10;;
17864;SDS011;9058;52.018;4.202;2023-02-15T02:49:30;207.27;;;91.47;;
17864;SDS011;9058;52.018;4.202;2023-02-15T02:51:58;188.53;;;87.63;;
17864;SDS011;9058;52.018;4.202;2023-02-15T02:54:24;211.03;;;94.87;;
17864;SDS011;9058;52.018;4.202;2023-02-15T02:56:51;204.27;;;94.27;;
17864;SDS011;9058;52.018;4.202;2023-02-15T02:59:20;212.43;;;90.13;;
17864;SDS011;9058;52.018;4.202;2023-02-15T03:01:48;199.10;;;90.60;;
17864;SDS011;9058;52.018;4.202;2023-02-15T03:04:17;195.10;;;90.00;;
17864;SDS011;9058;52.018;4.202;2023-02-15T03:06:49;206.87;;;93.10;;
17864;SDS011;9058;52.018;4.202;2023-02-15T03:09:18;209.33;;;95.33;;
17864;SDS011;9058;52.018;4.202;2023-02-15T03:11:50;207.10;;;94.70;;
17864;SDS011;9058;52.018;4.202;2023-02-15T03:14:17;206.07;;;93.67;;
17864;SDS011;9058;52.018;4.202;2023-02-15T03:16:46;206.13;;;91.80;;
17864;SDS011;9058;52.018;4.202;2023-02-15T03:19:14;194.97;;;92.60;;
17864;SDS011;9058;52.018;4.202;2023-02-15T03:21:43;205.23;;;91.10;;
17864;SDS011;9058;52.018;4.202;2023-02-15T03:24:17;203.87;;;87.90;;
17864;SDS011;9058;52.018;4.202;2023-02-15T03:26:48;191.07;;;89.07;;
17864;SDS011;9058;52.018;4.202;2023-02-15T03:29:18;201.33;;;87.47;;
17864;SDS011;9058;52.018;4.202;2023-02-15T03:31:46;209.30;;;88.03;;
17864;SDS011;9058;52.018;4.202;2023-02-15T03:34:16;194.47;;;86.83;;
17864;SDS011;9058;52.018;4.202;2023-02-15T03:36:44;194.20;;;86.47;;
17864;SDS011;9058;52.018;4.202;2023-02-15T03:39:17;194.13;;;86.90;;
17864;SDS011;9058;52.018;4.202;2023-02-15T03:41:46;187.23;;;89.10;;
17864;SDS011;9058;52.018;4.202;2023-02-15T03:44:15;212.77;;;92.87;;
17864;SDS011;9058;52.018;4.202;2023-02-15T03:46:45;209.97;;;91.70;;
17864;SDS011;9058;52.018;4.202;2023-02-15T03:49:14;201.07;;;89.87;;
17864;SDS011;9058;52.018;4.202;2023-02-15T03:51:42;192.70;;;90.67;;
17864;SDS011;9058;52.018;4.202;2023-02-15T03:54:11;200.53;;;90.03;;
17864;SDS011;9058;52.018;4.202;2023-02-15T03:56:41;194.10;;;92.70;;
17864;SDS011;9058;52.018;4.202;2023-02-15T03:59:36;186.10;;;89.07;;
17864;SDS011;9058;52.018;4.202;2023-02-15T04:02:21;199.03;;;88.20;;
17864;SDS011;9058;52.018;4.202;2023-02-15T04:04:50;189.90;;;88.90;;
17864;SDS011;9058;52.018;4.202;2023-02-15T04:07:16;189.30;;;90.67;;
17864;SDS011;9058;52.018;4.202;2023-02-15T04:09:43;185.10;;;88.80;;
17864;SDS011;9058;52.018;4.202;2023-02-15T04:12:28;196.53;;;90.33;;
17864;SDS011;9058;52.018;4.202;2023-02-15T04:14:54;204.33;;;86.97;;
17864;SDS011;9058;52.018;4.202;2023-02-15T04:17:38;191.60;;;85.47;;
17864;SDS011;9058;52.018;4.202;2023-02-15T04:20:05;196.20;;;88.87;;
17864;SDS011;9058;52.018;4.202;2023-02-15T04:22:49;199.13;;;86.67;;
17864;SDS011;9058;52.018;4.202;2023-02-15T04:25:33;198.47;;;88.37;;
17864;SDS011;9058;52.018;4.202;2023-02-15T04:28:01;192.47;;;88.80;;
17864;SDS011;9058;52.018;4.202;2023-02-15T04:30:28;188.07;;;90.20;;
17864;SDS011;9058;52.018;4.202;2023-02-15T04:32:54;202.00;;;89.60;;
17864;SDS011;9058;52.018;4.202;2023-02-15T04:35:22;193.57;;;88.37;;
17864;SDS011;9058;52.018;4.202;2023-02-15T04:37:48;201.27;;;88.97;;
17864;SDS011;9058;52.018;4.202;2023-02-15T04:40:16;193.83;;;89.43;;
17864;SDS011;9058;52.018;4.202;2023-02-15T04:42:43;209.13;;;88.87;;
17864;SDS011;9058;52.018;4.202;2023-02-15T04:45:11;193.80;;;91.83;;
17864;SDS011;9058;52.018;4.202;2023-02-15T04:47:37;207.00;;;93.60;;
17864;SDS011;9058;52.018;4.202;2023-02-15T04:50:05;198.87;;;95.10;;
17864;SDS011;9058;52.018;4.202;2023-02-15T04:52:32;215.77;;;99.97;;
17864;SDS011;9058;52.018;4.202;2023-02-15T04:54:58;207.90;;;96.07;;
17864;SDS011;9058;52.018;4.202;2023-02-15T04:57:25;205.97;;;96.23;;
17864;SDS011;9058;52.018;4.202;2023-02-15T04:59:52;208.43;;;95.67;;
17864;SDS011;9058;52.018;4.202;2023-02-15T05:02:20;197.90;;;91.57;;
17864;SDS011;9058;52.018;4.202;2023-02-15T05:04:46;196.47;;;90.40;;
17864;SDS011;9058;52.018;4.202;2023-02-15T05:07:13;211.37;;;93.57;;
17864;SDS011;9058;52.018;4.202;2023-02-15T05:09:40;190.50;;;89.17;;
17864;SDS011;9058;52.018;4.202;2023-02-15T05:12:07;190.23;;;90.27;;
17864;SDS011;9058;52.018;4.202;2023-02-15T05:14:34;201.03;;;90.77;;
17864;SDS011;9058;52.018;4.202;2023-02-15T05:17:01;201.17;;;90.80;;
17864;SDS011;9058;52.018;4.202;2023-02-15T05:19:31;195.17;;;87.77;;
17864;SDS011;9058;52.018;4.202;2023-02-15T05:21:58;190.13;;;87.27;;
17864;SDS011;9058;52.018;4.202;2023-02-15T05:24:26;185.73;;;83.80;;
17864;SDS011;9058;52.018;4.202;2023-02-15T05:27:13;181.37;;;83.30;;
17864;SDS011;9058;52.018;4.202;2023-02-15T05:29:57;198.67;;;86.43;;
17864;SDS011;9058;52.018;4.202;2023-02-15T05:32:23;191.70;;;85.53;;
17864;SDS011;9058;52.018;4.202;2023-02-15T05:34:51;187.67;;;85.30;;
17864;SDS011;9058;52.018;4.202;2023-02-15T05:37:18;180.47;;;84.07;;
17864;SDS011;9058;52.018;4.202;2023-02-15T05:39:45;188.27;;;83.70;;
17864;SDS011;9058;52.018;4.202;2023-02-15T05:42:12;189.47;;;85.67;;
17864;SDS011;9058;52.018;4.202;2023-02-15T05:44:38;183.63;;;87.33;;
17864;SDS011;9058;52.018;4.202;2023-02-15T05:47:05;194.77;;;87.60;;
17864;SDS011;9058;52.018;4.202;2023-02-15T05:49:33;197.77;;;87.10;;
17864;SDS011;9058;52.018;4.202;2023-02-15T05:52:01;182.07;;;87.73;;
17864;SDS011;9058;52.018;4.202;2023-02-15T05:54:28;186.23;;;85.77;;
17864;SDS011;9058;52.018;4.202;2023-02-15T05:56:55;188.43;;;87.80;;
17864;SDS011;9058;52.018;4.202;2023-02-15T05:59:22;176.33;;;85.33;;
17864;SDS011;9058;52.018;4.202;2023-02-15T06:01:48;192.07;;;88.33;;
17864;SDS011;9058;52.018;4.202;2023-02-15T06:04:15;178.67;;;85.80;;
17864;SDS011;9058;52.018;4.202;2023-02-15T06:06:42;188.87;;;89.27;;
17864;SDS011;9058;52.018;4.202;2023-02-15T06:09:11;192.87;;;85.10;;
17864;SDS011;9058;52.018;4.202;2023-02-15T06:11:38;190.50;;;85.63;;
17864;SDS011;9058;52.018;4.202;2023-02-15T06:14:04;170.13;;;86.00;;
17864;SDS011;9058;52.018;4.202;2023-02-15T06:16:31;187.50;;;84.80;;
17864;SDS011;9058;52.018;4.202;2023-02-15T06:18:57;178.23;;;81.47;;
17864;SDS011;9058;52.018;4.202;2023-02-15T06:21:26;183.10;;;87.47;;
17864;SDS011;9058;52.018;4.202;2023-02-15T06:23:53;182.53;;;87.20;;
17864;SDS011;9058;52.018;4.202;2023-02-15T06:26:21;181.63;;;85.13;;
17864;SDS011;9058;52.018;4.202;2023-02-15T06:28:48;179.77;;;86.77;;
17864;SDS011;9058;52.018;4.202;2023-02-15T06:31:16;170.60;;;85.40;;
17864;SDS011;9058;52.018;4.202;2023-02-15T06:33:43;185.50;;;82.37;;
17864;SDS011;9058;52.018;4.202;2023-02-15T06:36:09;182.23;;;89.43;;
17864;SDS011;9058;52.018;4.202;2023-02-15T06:38:37;185.77;;;85.83;;
17864;SDS011;9058;52.018;4.202;2023-02-15T06:41:03;182.30;;;86.13;;
17864;SDS011;9058;52.018;4.202;2023-02-15T06:43:32;195.53;;;90.30;;
17864;SDS011;9058;52.018;4.202;2023-02-15T06:45:59;184.23;;;89.27;;
17864;SDS011;9058;52.018;4.202;2023-02-15T06:48:26;194.00;;;88.77;;
17864;SDS011;9058;52.018;4.202;2023-02-15T06:50:52;172.87;;;84.37;;
17864;SDS011;9058;52.018;4.202;2023-02-15T06:53:19;181.57;;;86.77;;
17864;SDS011;9058;52.018;4.202;2023-02-15T06:55:45;175.73;;;87.17;;
17864;SDS011;9058;52.018;4.202;2023-02-15T06:58:12;184.67;;;86.73;;
17864;SDS011;9058;52.018;4.202;2023-02-15T07:00:40;185.83;;;87.83;;
17864;SDS011;9058;52.018;4.202;2023-02-15T07:03:06;183.80;;;88.33;;
17864;SDS011;9058;52.018;4.202;2023-02-15T07:05:33;185.07;;;82.77;;
17864;SDS011;9058;52.018;4.202;2023-02-15T07:08:00;195.90;;;85.70;;
17864;SDS011;9058;52.018;4.202;2023-02-15T07:10:26;196.53;;;89.60;;
17864;SDS011;9058;52.018;4.202;2023-02-15T07:12:53;172.73;;;87.33;;
17864;SDS011;9058;52.018;4.202;2023-02-15T07:15:19;179.63;;;87.30;;
17864;SDS011;9058;52.018;4.202;2023-02-15T07:17:48;193.30;;;90.80;;
17864;SDS011;9058;52.018;4.202;2023-02-15T07:20:17;189.70;;;91.13;;
17864;SDS011;9058;52.018;4.202;2023-02-15T07:22:44;200.27;;;91.17;;
17864;SDS011;9058;52.018;4.202;2023-02-15T07:25:11;180.23;;;88.80;;
17864;SDS011;9058;52.018;4.202;2023-02-15T07:27:38;177.17;;;86.33;;
17864;SDS011;9058;52.018;4.202;2023-02-15T07:30:06;181.80;;;84.80;;
17864;SDS011;9058;52.018;4.202;2023-02-15T07:32:32;180.53;;;88.47;;
17864;SDS011;9058;52.018;4.202;2023-02-15T07:35:00;182.90;;;87.90;;
17864;SDS011;9058;52.018;4.202;2023-02-15T07:37:27;182.10;;;87.23;;
17864;SDS011;9058;52.018;4.202;2023-02-15T07:39:54;173.13;;;89.07;;
17864;SDS011;9058;52.018;4.202;2023-02-15T07:42:20;178.03;;;89.37;;
17864;SDS011;9058;52.018;4.202;2023-02-15T07:44:47;181.77;;;90.87;;
17864;SDS011;9058;52.018;4.202;2023-02-15T07:47:13;185.83;;;90.60;;
17864;SDS011;9058;52.018;4.202;2023-02-15T07:49:40;185.80;;;91.30;;
17864;SDS011;9058;52.018;4.202;2023-02-15T07:52:08;181.37;;;92.23;;
17864;SDS011;9058;52.018;4.202;2023-02-15T07:54:34;184.87;;;94.00;;
17864;SDS011;9058;52.018;4.202;2023-02-15T07:57:00;198.97;;;94.87;;
17864;SDS011;9058;52.018;4.202;2023-02-15T07:59:27;191.03;;;93.40;;
17864;SDS011;9058;52.018;4.202;2023-02-15T08:01:53;184.57;;;97.80;;
17864;SDS011;9058;52.018;4.202;2023-02-15T08:04:21;191.43;;;97.90;;
17864;SDS011;9058;52.018;4.202;2023-02-15T08:06:51;184.53;;;94.27;;
17864;SDS011;9058;52.018;4.202;2023-02-15T08:09:19;188.67;;;100.67;;
17864;SDS011;9058;52.018;4.202;2023-02-15T08:11:46;186.80;;;101.07;;
17864;SDS011;9058;52.018;4.202;2023-02-15T08:14:13;197.97;;;100.70;;
17864;SDS011;9058;52.018;4.202;2023-02-15T08:16:41;184.53;;;100.13;;
17864;SDS011;9058;52.018;4.202;2023-02-15T08:19:09;177.07;;;96.23;;
17864;SDS011;9058;52.018;4.202;2023-02-15T08:21:36;188.67;;;100.03;;
17864;SDS011;9058;52.018;4.202;2023-02-15T08:24:03;189.60;;;98.90;;
17864;SDS011;9058;52.018;4.202;2023-02-15T08:26:31;183.63;;;100.10;;
17864;SDS011;9058;52.018;4.202;2023-02-15T08:28:58;198.13;;;102.67;;
17864;SDS011;9058;52.018;4.202;2023-02-15T08:31:25;187.13;;;100.10;;
17864;SDS011;9058;52.018;4.202;2023-02-15T08:33:53;187.03;;;99.57;;
17864;SDS011;9058;52.018;4.202;2023-02-15T08:36:21;176.70;;;99.83;;
17864;SDS011;9058;52.018;4.202;2023-02-15T08:38:47;178.07;;;100.00;;
17864;SDS011;9058;52.018;4.202;2023-02-15T08:41:15;166.00;;;95.83;;
17864;SDS011;9058;52.018;4.202;2023-02-15T08:43:43;170.65;;;93.57;;
17864;SDS011;9058;52.018;4.202;2023-02-15T08:46:10;162.97;;;93.90;;
17864;SDS011;9058;52.018;4.202;2023-02-15T08:48:36;159.85;;;90.32;;
17864;SDS011;9058;52.018;4.202;2023-02-15T08:51:04;146.03;;;88.23;;
17864;SDS011;9058;52.018;4.202;2023-02-15T08:53:31;155.32;;;92.68;;
17864;SDS011;9058;52.018;4.202;2023-02-15T08:55:58;152.98;;;90.53;;
17864;SDS011;9058;52.018;4.202;2023-02-15T08:58:25;140.07;;;87.30;;
17864;SDS011;9058;52.018;4.202;2023-02-15T09:00:52;147.65;;;88.35;;
17864;SDS011;9058;52.018;4.202;2023-02-15T09:03:19;159.40;;;91.40;;
17864;SDS011;9058;52.018;4.202;2023-02-15T09:05:45;138.27;;;82.97;;
17864;SDS011;9058;52.018;4.202;2023-02-15T09:08:12;128.95;;;82.45;;
17864;SDS011;9058;52.018;4.202;2023-02-15T09:10:38;137.93;;;80.35;;
17864;SDS011;9058;52.018;4.202;2023-02-15T09:13:05;120.72;;;73.43;;
17864;SDS011;9058;52.018;4.202;2023-02-15T09:15:32;121.65;;;73.05;;
17864;SDS011;9058;52.018;4.202;2023-02-15T09:17:59;113.10;;;67.57;;
17864;SDS011;9058;52.018;4.202;2023-02-15T09:20:30;101.55;;;60.72;;
17864;SDS011;9058;52.018;4.202;2023-02-15T09:22:57;100.03;;;64.90;;
17864;SDS011;9058;52.018;4.202;2023-02-15T09:25:23;104.00;;;61.72;;
17864;SDS011;9058;52.018;4.202;2023-02-15T09:27:49;93.70;;;57.38;;
17864;SDS011;9058;52.018;4.202;2023-02-15T09:30:16;81.53;;;52.72;;
17864;SDS011;9058;52.018;4.202;2023-02-15T09:32:42;83.13;;;52.30;;
17864;SDS011;9058;52.018;4.202;2023-02-15T09:35:12;74.63;;;50.30;;
17864;SDS011;9058;52.018;4.202;2023-02-15T09:37:38;73.43;;;48.22;;
17864;SDS011;9058;52.018;4.202;2023-02-15T09:40:05;67.22;;;45.45;;
17864;SDS011;9058;52.018;4.202;2023-02-15T09:42:35;71.45;;;46.80;;
17864;SDS011;9058;52.018;4.202;2023-02-15T09:45:09;69.75;;;42.08;;
17864;SDS011;9058;52.018;4.202;2023-02-15T09:47:46;61.50;;;41.42;;
17864;SDS011;9058;52.018;4.202;2023-02-15T09:50:19;61.83;;;41.28;;
17864;SDS011;9058;52.018;4.202;2023-02-15T09:52:50;58.60;;;39.20;;
17864;SDS011;9058;52.018;4.202;2023-02-15T09:55:24;56.50;;;40.70;;
17864;SDS011;9058;52.018;4.202;2023-02-15T09:57:59;52.33;;;38.72;;
17864;SDS011;9058;52.018;4.202;2023-02-15T10:00:31;53.35;;;39.25;;
17864;SDS011;9058;52.018;4.202;2023-02-15T10:03:10;58.95;;;38.42;;
17864;SDS011;9058;52.018;4.202;2023-02-15T10:05:43;52.92;;;37.60;;
17864;SDS011;9058;52.018;4.202;2023-02-15T10:08:18;52.08;;;37.63;;
17864;SDS011;9058;52.018;4.202;2023-02-15T10:10:48;54.08;;;38.30;;
17864;SDS011;9058;52.018;4.202;2023-02-15T10:13:20;55.25;;;35.05;;
17864;SDS011;9058;52.018;4.202;2023-02-15T10:15:53;50.85;;;34.30;;
17864;SDS011;9058;52.018;4.202;2023-02-15T10:18:28;48.47;;;34.72;;
17864;SDS011;9058;52.018;4.202;2023-02-15T10:20:59;48.28;;;33.75;;
17864;SDS011;9058;52.018;4.202;2023-02-15T10:23:35;49.88;;;33.72;;
17864;SDS011;9058;52.018;4.202;2023-02-15T10:26:05;46.35;;;33.17;;
17864;SDS011;9058;52.018;4.202;2023-02-15T10:28:39;47.50;;;36.78;;
17864;SDS011;9058;52.018;4.202;2023-02-15T10:31:09;52.13;;;37.75;;
17864;SDS011;9058;52.018;4.202;2023-02-15T10:33:40;55.35;;;34.03;;
17864;SDS011;9058;52.018;4.202;2023-02-15T10:36:11;47.20;;;34.97;;
17864;SDS011;9058;52.018;4.202;2023-02-15T10:38:44;51.13;;;33.50;;
17864;SDS011;9058;52.018;4.202;2023-02-15T10:41:16;46.03;;;32.05;;
17864;SDS011;9058;52.018;4.202;2023-02-15T10:43:53;47.55;;;34.38;;
17864;SDS011;9058;52.018;4.202;2023-02-15T10:46:31;48.05;;;33.60;;
17864;SDS011;9058;52.018;4.202;2023-02-15T10:49:07;51.63;;;33.95;;
17864;SDS011;9058;52.018;4.202;2023-02-15T10:51:40;43.90;;;33.13;;
17864;SDS011;9058;52.018;4.202;2023-02-15T10:54:12;48.60;;;34.28;;
17864;SDS011;9058;52.018;4.202;2023-02-15T10:56:42;49.28;;;34.92;;
17864;SDS011;9058;52.018;4.202;2023-02-15T10:59:16;46.00;;;34.50;;
17864;SDS011;9058;52.018;4.202;2023-02-15T11:01:47;47.17;;;33.92;;
17864;SDS011;9058;52.018;4.202;2023-02-15T11:04:31;44.88;;;33.65;;
17864;SDS011;9058;52.018;4.202;2023-02-15T11:07:02;49.00;;;33.95;;
17864;SDS011;9058;52.018;4.202;2023-02-15T11:09:33;49.95;;;35.97;;
17864;SDS011;9058;52.018;4.202;2023-02-15T11:12:02;46.75;;;33.58;;
17864;SDS011;9058;52.018;4.202;2023-02-15T11:14:35;52.00;;;36.05;;
17864;SDS011;9058;52.018;4.202;2023-02-15T11:17:05;53.25;;;36.55;;
17864;SDS011;9058;52.018;4.202;2023-02-15T11:19:34;47.42;;;35.33;;
17864;SDS011;9058;52.018;4.202;2023-02-15T11:22:06;50.10;;;34.45;;
17864;SDS011;9058;52.018;4.202;2023-02-15T11:24:36;52.40;;;36.53;;
17864;SDS011;9058;52.018;4.202;2023-02-15T11:27:05;48.83;;;35.33;;
17864;SDS011;9058;52.018;4.202;2023-02-15T11:29:40;49.08;;;34.10;;
17864;SDS011;9058;52.018;4.202;2023-02-15T11:32:12;47.33;;;33.88;;
17864;SDS011;9058;52.018;4.202;2023-02-15T11:34:40;51.25;;;35.67;;
17864;SDS011;9058;52.018;4.202;2023-02-15T11:37:12;51.55;;;35.22;;
17864;SDS011;9058;52.018;4.202;2023-02-15T11:39:41;46.83;;;33.05;;
17864;SDS011;9058;52.018;4.202;2023-02-15T11:42:09;49.88;;;34.20;;
17864;SDS011;9058;52.018;4.202;2023-02-15T11:44:39;45.03;;;32.08;;
17864;SDS011;9058;52.018;4.202;2023-02-15T11:47:09;47.60;;;33.75;;
17864;SDS011;9058;52.018;4.202;2023-02-15T11:49:36;47.75;;;33.28;;
17864;SDS011;9058;52.018;4.202;2023-02-15T11:52:05;47.67;;;32.97;;
17864;SDS011;9058;52.018;4.202;2023-02-15T11:54:34;47.88;;;33.13;;
17864;SDS011;9058;52.018;4.202;2023-02-15T11:57:03;44.25;;;31.90;;
17864;SDS011;9058;52.018;4.202;2023-02-15T11:59:32;44.65;;;32.85;;
17864;SDS011;9058;52.018;4.202;2023-02-15T12:01:58;44.30;;;33.28;;
17864;SDS011;9058;52.018;4.202;2023-02-15T12:04:26;45.22;;;32.95;;
17864;SDS011;9058;52.018;4.202;2023-02-15T12:06:56;44.08;;;32.88;;
17864;SDS011;9058;52.018;4.202;2023-02-15T12:09:27;46.30;;;33.95;;
17864;SDS011;9058;52.018;4.202;2023-02-15T12:11:57;45.58;;;33.08;;
17864;SDS011;9058;52.018;4.202;2023-02-15T12:14:46;48.70;;;34.30;;
17864;SDS011;9058;52.018;4.202;2023-02-15T12:17:13;49.50;;;34.72;;
17864;SDS011;9058;52.018;4.202;2023-02-15T12:19:40;50.00;;;35.90;;
17864;SDS011;9058;52.018;4.202;2023-02-15T12:22:11;43.78;;;33.75;;
17864;SDS011;9058;52.018;4.202;2023-02-15T12:24:46;45.92;;;32.90;;
17864;SDS011;9058;52.018;4.202;2023-02-15T12:27:15;51.17;;;36.50;;
17864;SDS011;9058;52.018;4.202;2023-02-15T12:29:43;49.47;;;34.53;;
17864;SDS011;9058;52.018;4.202;2023-02-15T12:32:16;49.80;;;35.05;;
17864;SDS011;9058;52.018;4.202;2023-02-15T12:34:43;45.45;;;34.58;;
17864;SDS011;9058;52.018;4.202;2023-02-15T12:37:14;47.00;;;33.50;;
17864;SDS011;9058;52.018;4.202;2023-02-15T12:39:50;48.13;;;35.90;;
17864;SDS011;9058;52.018;4.202;2023-02-15T12:42:18;43.92;;;32.80;;
17864;SDS011;9058;52.018;4.202;2023-02-15T12:44:53;44.35;;;33.00;;
17864;SDS011;9058;52.018;4.202;2023-02-15T12:47:19;43.08;;;33.03;;
17864;SDS011;9058;52.018;4.202;2023-02-15T12:50:05;46.60;;;33.00;;
17864;SDS011;9058;52.018;4.202;2023-02-15T12:52:34;48.35;;;34.17;;
17864;SDS011;9058;52.018;4.202;2023-02-15T12:55:11;48.53;;;34.10;;
17864;SDS011;9058;52.018;4.202;2023-02-15T12:57:44;45.15;;;34.08;;
17864;SDS011;9058;52.018;4.202;2023-02-15T13:00:24;45.38;;;32.47;;
17864;SDS011;9058;52.018;4.202;2023-02-15T13:02:52;46.78;;;32.78;;
17864;SDS011;9058;52.018;4.202;2023-02-15T13:05:19;46.25;;;34.30;;
17864;SDS011;9058;52.018;4.202;2023-02-15T13:07:48;46.22;;;32.58;;
17864;SDS011;9058;52.018;4.202;2023-02-15T13:10:20;44.05;;;32.53;;
17864;SDS011;9058;52.018;4.202;2023-02-15T13:12:49;43.60;;;34.30;;
17864;SDS011;9058;52.018;4.202;2023-02-15T13:15:23;43.00;;;32.95;;
17864;SDS011;9058;52.018;4.202;2023-02-15T13:17:51;43.08;;;32.55;;
17864;SDS011;9058;52.018;4.202;2023-02-15T13:20:18;44.95;;;33.42;;
17864;SDS011;9058;52.018;4.202;2023-02-15T13:22:46;48.15;;;33.35;;
17864;SDS011;9058;52.018;4.202;2023-02-15T13:25:14;43.38;;;32.40;;
17864;SDS011;9058;52.018;4.202;2023-02-15T13:27:43;43.47;;;33.03;;
17864;SDS011;9058;52.018;4.202;2023-02-15T13:30:16;45.05;;;32.25;;
17864;SDS011;9058;52.018;4.202;2023-02-15T13:32:45;45.53;;;32.25;;
17864;SDS011;9058;52.018;4.202;2023-02-15T13:35:13;46.80;;;33.75;;
17864;SDS011;9058;52.018;4.202;2023-02-15T13:37:45;43.60;;;31.85;;
17864;SDS011;9058;52.018;4.202;2023-02-15T13:40:15;41.70;;;31.30;;
17864;SDS011;9058;52.018;4.202;2023-02-15T13:42:44;45.08;;;30.33;;
17864;SDS011;9058;52.018;4.202;2023-02-15T13:45:20;40.65;;;29.85;;
17864;SDS011;9058;52.018;4.202;2023-02-15T13:47:49;38.05;;;29.77;;
17864;SDS011;9058;52.018;4.202;2023-02-15T13:50:20;44.30;;;31.77;;
17864;SDS011;9058;52.018;4.202;2023-02-15T13:52:53;44.70;;;31.23;;
17864;SDS011;9058;52.018;4.202;2023-02-15T13:55:26;40.97;;;29.58;;
17864;SDS011;9058;52.018;4.202;2023-02-15T13:57:59;41.33;;;30.27;;
17864;SDS011;9058;52.018;4.202;2023-02-15T14:00:30;43.78;;;30.95;;
17864;SDS011;9058;52.018;4.202;2023-02-15T14:03:06;43.40;;;33.00;;
17864;SDS011;9058;52.018;4.202;2023-02-15T14:05:43;42.70;;;31.10;;
17864;SDS011;9058;52.018;4.202;2023-02-15T14:08:17;47.55;;;32.30;;
17864;SDS011;9058;52.018;4.202;2023-02-15T14:10:50;44.20;;;32.20;;
17864;SDS011;9058;52.018;4.202;2023-02-15T14:13:35;42.63;;;31.95;;
17864;SDS011;9058;52.018;4.202;2023-02-15T14:16:08;44.47;;;31.95;;
17864;SDS011;9058;52.018;4.202;2023-02-15T14:18:39;43.80;;;32.83;;
17864;SDS011;9058;52.018;4.202;2023-02-15T14:21:10;44.38;;;31.45;;
17864;SDS011;9058;52.018;4.202;2023-02-15T14:23:42;42.88;;;30.58;;
17864;SDS011;9058;52.018;4.202;2023-02-15T14:26:11;43.80;;;32.40;;
17864;SDS011;9058;52.018;4.202;2023-02-15T14:28:41;39.65;;;30.55;;
17864;SDS011;9058;52.018;4.202;2023-02-15T14:31:11;41.40;;;29.88;;
17864;SDS011;9058;52.018;4.202;2023-02-15T14:33:38;43.83;;;31.77;;
17864;SDS011;9058;52.018;4.202;2023-02-15T14:36:08;43.83;;;32.22;;
17864;SDS011;9058;52.018;4.202;2023-02-15T14:38:38;45.65;;;33.22;;